Time;durP1;ratioP1;P1;durP2;ratioP2;P2;SDS_P1;SDS_P2;PMS_P1;PMS_P2;Temp;Humidity;BMP_temperature;BMP_pressure;BME280_temperature;BME280_humidity;BME280_pressure;Samples;Min_cycle;Max_cycle;Signal;HPM_P1;HPM_P2
2023/03/06 00:01:28;;;;;;;10.63;8.75;;;;;;;;;;5056832;28;20248;-71
2023/03/06 00:03:55;;;;;;;12.75;9.50;;;;;;;;;;5056507;28;20215;-71
2023/03/06 00:06:22;;;;;;;12.63;10.38;;;;;;;;;;5056198;28;20218;-71
2023/03/06 00:08:49;;;;;;;13.63;9.75;;;;;;;;;;5056026;28;20197;-71
2023/03/06 00:11:16;;;;;;;11.18;9.00;;;;;;;;;;5056676;28;20272;-71
2023/03/06 00:13:44;;;;;;;11.38;9.48;;;;;;;;;;5056278;28;20194;-71
2023/03/06 00:16:11;;;;;;;12.23;8.38;;;;;;;;;;5056095;28;20281;-71
2023/03/06 00:18:40;;;;;;;12.95;9.60;;;;;;;;;;5055885;28;20248;-71
2023/03/06 00:21:08;;;;;;;11.20;9.70;;;;;;;;;;5056237;28;20200;-71
2023/03/06 00:23:35;;;;;;;11.48;8.68;;;;;;;;;;5055974;28;20229;-71
2023/03/06 00:26:02;;;;;;;13.80;10.50;;;;;;;;;;5056850;28;20260;-71
2023/03/06 00:28:30;;;;;;;13.38;10.27;;;;;;;;;;5055936;28;20283;-70
2023/03/06 00:30:57;;;;;;;13.73;10.32;;;;;;;;;;5056327;28;20658;-70
2023/03/06 00:33:24;;;;;;;14.90;10.52;;;;;;;;;;5055956;28;20201;-71
2023/03/06 00:35:53;;;;;;;16.52;10.43;;;;;;;;;;5056058;28;20306;-71
2023/03/06 00:38:20;;;;;;;11.55;9.60;;;;;;;;;;5055957;28;20189;-70
2023/03/06 00:40:47;;;;;;;15.32;9.77;;;;;;;;;;5055679;28;20242;-70
2023/03/06 00:43:15;;;;;;;12.40;10.77;;;;;;;;;;5055290;28;20305;-71
2023/03/06 00:45:42;;;;;;;17.30;11.18;;;;;;;;;;5055434;28;20636;-71
2023/03/06 00:48:09;;;;;;;12.07;9.55;;;;;;;;;;5055360;28;20666;-71
2023/03/06 00:50:36;;;;;;;14.30;11.43;;;;;;;;;;5055702;28;20282;-71
2023/03/06 00:53:05;;;;;;;15.73;11.50;;;;;;;;;;5055498;28;20201;-71
2023/03/06 00:55:32;;;;;;;15.95;11.18;;;;;;;;;;5055200;28;20284;-71
2023/03/06 00:57:59;;;;;;;16.38;10.85;;;;;;;;;;5055448;28;20197;-71
2023/03/06 01:00:26;;;;;;;17.23;11.07;;;;;;;;;;5055206;28;20646;-71
2023/03/06 01:02:54;;;;;;;17.67;12.30;;;;;;;;;;5055166;28;20571;-70
2023/03/06 01:05:22;;;;;;;12.63;11.27;;;;;;;;;;5055046;28;20658;-70
2023/03/06 01:07:49;;;;;;;15.13;10.20;;;;;;;;;;5055474;28;20222;-71
2023/03/06 01:10:18;;;;;;;15.95;10.75;;;;;;;;;;5054949;28;20197;-71
2023/03/06 01:12:45;;;;;;;11.75;9.77;;;;;;;;;;5054908;28;20726;-70
2023/03/06 01:15:13;;;;;;;17.63;11.48;;;;;;;;;;5055344;28;20192;-70
2023/03/06 01:17:40;;;;;;;15.80;9.93;;;;;;;;;;5054774;28;20201;-70
2023/03/06 01:20:08;;;;;;;16.35;11.52;;;;;;;;;;5054827;28;20194;-70
2023/03/06 01:22:35;;;;;;;14.90;10.13;;;;;;;;;;5055154;28;20191;-71
2023/03/06 01:25:02;;;;;;;16.55;11.70;;;;;;;;;;5055323;28;20193;-70
2023/03/06 01:27:31;;;;;;;15.20;10.05;;;;;;;;;;5054989;28;20198;-71
2023/03/06 01:29:58;;;;;;;13.32;10.88;;;;;;;;;;5055011;28;20536;-70
2023/03/06 01:32:25;;;;;;;14.93;10.20;;;;;;;;;;5054913;28;20202;-70
2023/03/06 01:34:52;;;;;;;14.60;10.73;;;;;;;;;;5054789;28;20197;-70
2023/03/06 01:37:19;;;;;;;11.27;9.77;;;;;;;;;;5054894;28;20222;-70
2023/03/06 01:39:47;;;;;;;14.02;9.80;;;;;;;;;;5054659;28;20279;-70
2023/03/06 01:42:14;;;;;;;19.33;11.27;;;;;;;;;;5054743;28;20203;-70
2023/03/06 01:44:56;;;;;;;14.10;10.50;;;;;;;;;;5054090;28;20232;-70
2023/03/06 01:47:24;;;;;;;19.02;10.98;;;;;;;;;;5054377;28;20177;-70
2023/03/06 01:49:52;;;;;;;16.80;10.32;;;;;;;;;;5054529;28;20204;-70
2023/03/06 01:52:22;;;;;;;12.80;9.70;;;;;;;;;;5054613;28;20545;-70
2023/03/06 01:54:51;;;;;;;11.90;9.75;;;;;;;;;;5054574;28;20281;-70
2023/03/06 01:57:21;;;;;;;14.70;11.60;;;;;;;;;;5054417;28;20194;-70
2023/03/06 01:59:51;;;;;;;17.48;9.38;;;;;;;;;;5054620;28;20489;-70
2023/03/06 02:02:19;;;;;;;13.23;9.40;;;;;;;;;;5054613;28;20631;-70
2023/03/06 02:04:47;;;;;;;13.77;10.68;;;;;;;;;;5054237;28;20534;-70
2023/03/06 02:07:16;;;;;;;14.75;10.85;;;;;;;;;;5053636;28;20236;-70
2023/03/06 02:09:43;;;;;;;15.77;11.23;;;;;;;;;;5054053;28;20189;-70
2023/03/06 02:12:11;;;;;;;13.57;9.63;;;;;;;;;;5053799;28;20285;-70
2023/03/06 02:14:39;;;;;;;11.60;9.40;;;;;;;;;;5053430;28;20204;-70
2023/03/06 02:17:06;;;;;;;14.85;10.30;;;;;;;;;;5053992;28;20550;-70
2023/03/06 02:19:37;;;;;;;13.23;10.45;;;;;;;;;;5053550;28;20195;-70
2023/03/06 02:22:06;;;;;;;17.52;11.07;;;;;;;;;;5054023;28;20192;-70
2023/03/06 02:24:37;;;;;;;12.23;9.65;;;;;;;;;;5053713;28;20227;-70
2023/03/06 02:27:07;;;;;;;13.70;9.85;;;;;;;;;;5053615;28;20306;-70
2023/03/06 02:29:34;;;;;;;15.20;10.80;;;;;;;;;;5053427;28;20196;-70
2023/03/06 02:32:01;;;;;;;17.85;10.50;;;;;;;;;;5054059;28;20191;-70
2023/03/06 02:34:51;;;;;;;12.48;10.07;;;;;;;;;;5053942;28;20194;-70
2023/03/06 02:37:19;;;;;;;11.75;10.35;;;;;;;;;;5053956;28;20186;-70
2023/03/06 02:39:48;;;;;;;12.60;9.75;;;;;;;;;;5053227;28;20200;-70
2023/03/06 02:42:20;;;;;;;18.02;10.27;;;;;;;;;;5053457;28;20288;-70
2023/03/06 02:44:48;;;;;;;13.00;10.05;;;;;;;;;;5053422;28;20668;-70
2023/03/06 02:47:15;;;;;;;16.77;10.65;;;;;;;;;;5053361;28;20601;-70
2023/03/06 02:49:42;;;;;;;14.32;10.85;;;;;;;;;;5053330;28;20192;-70
2023/03/06 02:52:10;;;;;;;16.17;10.18;;;;;;;;;;5053907;28;20201;-70
2023/03/06 02:54:37;;;;;;;16.20;10.52;;;;;;;;;;5052938;28;20293;-70
2023/03/06 02:57:04;;;;;;;11.25;10.05;;;;;;;;;;5052975;28;20202;-71
2023/03/06 02:59:33;;;;;;;14.63;9.95;;;;;;;;;;5053480;28;20215;-71
2023/03/06 03:02:00;;;;;;;17.13;11.05;;;;;;;;;;5053720;28;20189;-70
2023/03/06 03:04:27;;;;;;;13.80;10.85;;;;;;;;;;5052928;28;20218;-71
2023/03/06 03:06:54;;;;;;;16.13;10.48;;;;;;;;;;5053066;28;20340;-71
2023/03/06 03:09:21;;;;;;;15.85;11.77;;;;;;;;;;5052550;28;20194;-71
2023/03/06 03:11:49;;;;;;;20.75;9.90;;;;;;;;;;5052659;28;20194;-71
2023/03/06 03:14:16;;;;;;;14.90;10.80;;;;;;;;;;5052887;28;20579;-71
2023/03/06 03:16:45;;;;;;;19.45;11.65;;;;;;;;;;5053000;28;20197;-71
2023/03/06 03:19:12;;;;;;;13.77;11.05;;;;;;;;;;5053129;28;20275;-71
2023/03/06 03:21:41;;;;;;;13.27;11.45;;;;;;;;;;5053024;28;20280;-70
2023/03/06 03:24:08;;;;;;;13.35;11.23;;;;;;;;;;5052692;28;20247;-71
2023/03/06 03:26:36;;;;;;;17.88;12.00;;;;;;;;;;5051857;28;20245;-70
2023/03/06 03:29:04;;;;;;;13.25;11.85;;;;;;;;;;5053013;28;20194;-70
2023/03/06 03:31:31;;;;;;;13.20;11.73;;;;;;;;;;5052390;28;20205;-71
2023/03/06 03:34:01;;;;;;;18.25;11.25;;;;;;;;;;5052858;28;20638;-70
2023/03/06 03:36:28;;;;;;;15.38;12.82;;;;;;;;;;5052866;28;20199;-70
2023/03/06 03:38:56;;;;;;;17.55;12.55;;;;;;;;;;5052787;28;20198;-70
2023/03/06 03:41:23;;;;;;;16.63;11.40;;;;;;;;;;5052228;28;20258;-70
2023/03/06 03:43:50;;;;;;;16.33;12.40;;;;;;;;;;5052196;28;20220;-70
2023/03/06 03:46:17;;;;;;;16.55;12.82;;;;;;;;;;5052585;28;20535;-71
2023/03/06 03:48:45;;;;;;;15.75;11.05;;;;;;;;;;5053018;28;20194;-70
2023/03/06 03:51:15;;;;;;;17.55;12.93;;;;;;;;;;5052596;28;20199;-70
2023/03/06 03:53:42;;;;;;;18.20;11.60;;;;;;;;;;5052629;28;20195;-70
2023/03/06 03:56:10;;;;;;;18.27;13.55;;;;;;;;;;5052116;28;20645;-70
2023/03/06 03:58:37;;;;;;;16.55;13.23;;;;;;;;;;5052414;28;20197;-70
2023/03/06 04:01:04;;;;;;;14.93;11.77;;;;;;;;;;5052416;28;20195;-70
2023/03/06 04:03:31;;;;;;;16.63;10.75;;;;;;;;;;5052331;28;20212;-70
2023/03/06 04:05:59;;;;;;;14.48;9.80;;;;;;;;;;5052240;28;20229;-70
2023/03/06 04:08:28;;;;;;;13.25;11.35;;;;;;;;;;5052306;28;20651;-70
2023/03/06 04:10:55;;;;;;;14.43;11.25;;;;;;;;;;5052218;28;20631;-70
2023/03/06 04:13:23;;;;;;;19.17;11.75;;;;;;;;;;5052360;28;20217;-70
2023/03/06 04:15:50;;;;;;;15.15;11.23;;;;;;;;;;5051929;28;20197;-70
2023/03/06 04:18:18;;;;;;;15.70;11.00;;;;;;;;;;5052146;28;20188;-70
2023/03/06 04:20:45;;;;;;;15.38;11.63;;;;;;;;;;5052172;28;20194;-71
2023/03/06 04:23:12;;;;;;;13.25;10.52;;;;;;;;;;5052276;28;20220;-71
2023/03/06 04:25:41;;;;;;;12.05;10.82;;;;;;;;;;5052353;28;20229;-70
2023/03/06 04:28:09;;;;;;;15.40;13.18;;;;;;;;;;5052257;28;20197;-70
2023/03/06 04:30:36;;;;;;;16.88;11.63;;;;;;;;;;5051818;28;20216;-70
2023/03/06 04:33:03;;;;;;;15.30;11.35;;;;;;;;;;5052140;28;20189;-71
2023/03/06 04:35:31;;;;;;;15.70;11.38;;;;;;;;;;5052328;28;20193;-71
2023/03/06 04:37:58;;;;;;;14.98;12.23;;;;;;;;;;5053635;28;20194;-70
2023/03/06 04:40:27;;;;;;;17.73;12.82;;;;;;;;;;5055620;28;20188;-67
2023/03/06 04:42:55;;;;;;;15.82;12.13;;;;;;;;;;5055909;28;20191;-67
2023/03/06 04:45:22;;;;;;;17.25;13.95;;;;;;;;;;5055906;28;20540;-68
2023/03/06 04:47:50;;;;;;;17.38;13.70;;;;;;;;;;5056051;28;20189;-68
2023/03/06 04:50:17;;;;;;;15.38;13.20;;;;;;;;;;5055578;28;20196;-68
2023/03/06 04:52:44;;;;;;;17.15;13.93;;;;;;;;;;5052876;28;20552;-68
2023/03/06 04:55:13;;;;;;;17.77;12.73;;;;;;;;;;5052877;28;20194;-69
2023/03/06 04:57:41;;;;;;;19.30;12.88;;;;;;;;;;5053891;28;20202;-68
2023/03/06 05:00:13;;;;;;;15.52;11.40;;;;;;;;;;5053993;28;20196;-68
2023/03/06 05:02:42;;;;;;;17.13;13.50;;;;;;;;;;5053789;28;20193;-68
2023/03/06 05:05:09;;;;;;;17.08;14.02;;;;;;;;;;5053832;28;20224;-68
2023/03/06 05:07:37;;;;;;;16.80;14.55;;;;;;;;;;5053712;28;20226;-68
2023/03/06 05:10:04;;;;;;;18.88;12.88;;;;;;;;;;5054051;28;20203;-67
2023/03/06 05:12:31;;;;;;;18.83;13.07;;;;;;;;;;5054110;28;20203;-68
2023/03/06 05:14:59;;;;;;;19.48;13.90;;;;;;;;;;5053595;28;20197;-69
2023/03/06 05:17:27;;;;;;;16.17;13.23;;;;;;;;;;5054685;28;20550;-67
2023/03/06 05:19:54;;;;;;;15.60;12.23;;;;;;;;;;5053830;28;20199;-68
2023/03/06 05:22:22;;;;;;;14.95;12.15;;;;;;;;;;5054386;28;20217;-68
2023/03/06 05:24:49;;;;;;;16.80;12.05;;;;;;;;;;5054582;28;20229;-68
2023/03/06 05:27:19;;;;;;;17.88;13.05;;;;;;;;;;5053866;28;20198;-68
2023/03/06 05:29:46;;;;;;;16.98;13.43;;;;;;;;;;5053551;28;20257;-70
2023/03/06 05:32:13;;;;;;;17.35;12.40;;;;;;;;;;5053846;28;20607;-68
2023/03/06 05:34:42;;;;;;;17.52;12.70;;;;;;;;;;5053924;28;20658;-67
2023/03/06 05:37:09;;;;;;;18.20;12.55;;;;;;;;;;5054356;28;20202;-67
2023/03/06 05:39:37;;;;;;;19.17;14.60;;;;;;;;;;5054048;28;20189;-67
2023/03/06 05:42:04;;;;;;;19.35;13.50;;;;;;;;;;5054203;28;20197;-67
2023/03/06 05:44:32;;;;;;;19.92;12.85;;;;;;;;;;5054504;28;20216;-67
2023/03/06 05:47:00;;;;;;;15.95;11.98;;;;;;;;;;5054104;28;20197;-67
2023/03/06 05:49:27;;;;;;;16.30;11.73;;;;;;;;;;5052724;28;20219;-67
2023/03/06 05:51:55;;;;;;;16.15;11.95;;;;;;;;;;5053897;28;20192;-67
2023/03/06 05:54:23;;;;;;;17.63;12.25;;;;;;;;;;5053838;28;20192;-66
2023/03/06 05:56:53;;;;;;;19.23;12.32;;;;;;;;;;5054332;28;20202;-67
2023/03/06 05:59:20;;;;;;;18.95;12.10;;;;;;;;;;5053845;28;20191;-67
2023/03/06 06:01:47;;;;;;;17.63;11.02;;;;;;;;;;5053507;28;20202;-66
2023/03/06 06:04:14;;;;;;;23.80;12.73;;;;;;;;;;5054452;28;20561;-66
2023/03/06 06:06:41;;;;;;;18.52;12.38;;;;;;;;;;5053549;28;20229;-67
2023/03/06 06:09:10;;;;;;;14.73;11.82;;;;;;;;;;5053146;28;20198;-67
2023/03/06 06:11:37;;;;;;;19.77;13.48;;;;;;;;;;5053502;28;20543;-67
2023/03/06 06:14:04;;;;;;;14.80;11.20;;;;;;;;;;5053315;28;20292;-68
2023/03/06 06:16:32;;;;;;;19.95;11.60;;;;;;;;;;5053563;28;20316;-66
2023/03/06 06:18:59;;;;;;;21.50;10.50;;;;;;;;;;5053358;28;20196;-67
2023/03/06 06:21:26;;;;;;;15.50;11.45;;;;;;;;;;5052650;28;20196;-67
2023/03/06 06:23:53;;;;;;;16.55;11.95;;;;;;;;;;5053898;28;20283;-67
2023/03/06 06:26:22;;;;;;;14.93;11.68;;;;;;;;;;5053680;28;20216;-67
2023/03/06 06:28:55;;;;;;;19.60;10.80;;;;;;;;;;5053115;28;20199;-66
2023/03/06 06:31:22;;;;;;;18.80;12.10;;;;;;;;;;5052980;28;20183;-68
2023/03/06 06:33:50;;;;;;;15.75;11.18;;;;;;;;;;5052854;28;20205;-67
2023/03/06 06:36:18;;;;;;;14.27;11.40;;;;;;;;;;5053126;28;20209;-67
2023/03/06 06:38:45;;;;;;;16.15;10.75;;;;;;;;;;5053252;28;20543;-67
2023/03/06 06:41:13;;;;;;;17.38;10.93;;;;;;;;;;5053124;28;20203;-67
2023/03/06 06:43:41;;;;;;;14.00;10.38;;;;;;;;;;5053029;28;20198;-67
2023/03/06 06:46:08;;;;;;;13.20;9.85;;;;;;;;;;5053460;28;20553;-67
2023/03/06 06:48:36;;;;;;;16.60;10.90;;;;;;;;;;5053182;28;20562;-68
2023/03/06 06:51:04;;;;;;;15.13;10.52;;;;;;;;;;5052240;28;20193;-67
2023/03/06 06:53:31;;;;;;;19.48;10.73;;;;;;;;;;5052601;28;20202;-68
2023/03/06 06:55:58;;;;;;;15.45;10.52;;;;;;;;;;5052720;28;20205;-67
2023/03/06 06:58:26;;;;;;;16.13;11.60;;;;;;;;;;5052567;28;20219;-70
2023/03/06 07:00:54;;;;;;;14.23;10.05;;;;;;;;;;5051857;28;20200;-68
2023/03/06 07:03:22;;;;;;;17.67;11.48;;;;;;;;;;5052954;28;20279;-67
2023/03/06 07:05:54;;;;;;;18.63;11.32;;;;;;;;;;5052968;28;20249;-67
2023/03/06 07:08:21;;;;;;;19.45;11.38;;;;;;;;;;5053149;28;20236;-67
2023/03/06 07:10:49;;;;;;;16.67;11.50;;;;;;;;;;5052526;28;20193;-67
2023/03/06 07:13:16;;;;;;;15.93;11.30;;;;;;;;;;5052197;28;20198;-67
2023/03/06 07:15:43;;;;;;;13.88;10.60;;;;;;;;;;5052706;28;20238;-67
2023/03/06 07:18:11;;;;;;;13.52;10.65;;;;;;;;;;5052764;28;20192;-66
2023/03/06 07:20:39;;;;;;;19.65;11.18;;;;;;;;;;5052798;28;20284;-67
2023/03/06 07:23:08;;;;;;;17.00;10.55;;;;;;;;;;5052828;28;20212;-66
2023/03/06 07:25:35;;;;;;;14.45;10.50;;;;;;;;;;5052861;28;20555;-66
2023/03/06 07:28:02;;;;;;;13.80;9.57;;;;;;;;;;5052352;28;20199;-65
2023/03/06 07:30:29;;;;;;;14.55;9.60;;;;;;;;;;5052584;28;20193;-65
2023/03/06 07:32:57;;;;;;;15.40;10.18;;;;;;;;;;5051781;28;20211;-65
2023/03/06 07:35:26;;;;;;;17.05;10.93;;;;;;;;;;5052292;28;20222;-65
2023/03/06 07:37:53;;;;;;;15.85;11.60;;;;;;;;;;5052446;28;20209;-65
2023/03/06 07:40:21;;;;;;;14.52;11.02;;;;;;;;;;5052473;28;20209;-65
2023/03/06 07:42:48;;;;;;;16.67;11.38;;;;;;;;;;5052521;28;20197;-65
2023/03/06 07:45:15;;;;;;;17.75;10.43;;;;;;;;;;5052729;28;20299;-65
2023/03/06 07:47:43;;;;;;;18.60;12.25;;;;;;;;;;5052371;28;20204;-65
2023/03/06 07:50:10;;;;;;;15.52;9.98;;;;;;;;;;5052490;28;20192;-65
2023/03/06 07:52:39;;;;;;;22.20;12.27;;;;;;;;;;5052019;28;20219;-66
2023/03/06 07:55:07;;;;;;;14.43;11.18;;;;;;;;;;5051753;28;20244;-66
2023/03/06 07:57:34;;;;;;;18.38;11.20;;;;;;;;;;5052447;28;20196;-65
2023/03/06 08:00:01;;;;;;;16.52;11.45;;;;;;;;;;5052337;28;20190;-65
2023/03/06 08:02:28;;;;;;;20.23;12.00;;;;;;;;;;5052160;28;20721;-65
2023/03/06 08:04:56;;;;;;;16.08;10.73;;;;;;;;;;5051930;28;20655;-65
2023/03/06 08:07:23;;;;;;;15.65;10.70;;;;;;;;;;5052457;28;20222;-65
2023/03/06 08:09:51;;;;;;;13.15;9.38;;;;;;;;;;5052047;28;20285;-66
2023/03/06 08:12:18;;;;;;;13.88;11.00;;;;;;;;;;5052328;28;20189;-66
2023/03/06 08:14:46;;;;;;;15.13;11.93;;;;;;;;;;5055445;28;20515;-66
2023/03/06 08:17:13;;;;;;;17.75;11.13;;;;;;;;;;5056324;28;20198;-66
2023/03/06 08:19:40;;;;;;;22.27;12.00;;;;;;;;;;5056230;28;20193;-66
2023/03/06 08:22:07;;;;;;;16.95;12.05;;;;;;;;;;5055996;28;20196;-66
2023/03/06 08:24:35;;;;;;;17.58;12.23;;;;;;;;;;5056082;28;20194;-66
2023/03/06 08:27:03;;;;;;;14.65;11.85;;;;;;;;;;5055863;28;20199;-66
2023/03/06 08:29:31;;;;;;;22.38;13.20;;;;;;;;;;5056261;28;20543;-66
2023/03/06 08:31:58;;;;;;;19.10;12.40;;;;;;;;;;5055789;28;20204;-66
2023/03/06 08:34:26;;;;;;;18.15;13.57;;;;;;;;;;5055407;28;20536;-66
2023/03/06 08:36:53;;;;;;;17.83;13.15;;;;;;;;;;5055507;28;20288;-67
2023/03/06 08:39:22;;;;;;;16.02;11.80;;;;;;;;;;5055937;28;20201;-66
2023/03/06 08:41:49;;;;;;;20.23;13.27;;;;;;;;;;5055984;28;20204;-66
2023/03/06 08:44:18;;;;;;;16.38;11.90;;;;;;;;;;5055789;28;20310;-66
2023/03/06 08:46:45;;;;;;;22.40;12.00;;;;;;;;;;5055598;28;20231;-66
2023/03/06 08:49:13;;;;;;;15.75;10.93;;;;;;;;;;5055551;28;20193;-65
2023/03/06 08:51:41;;;;;;;15.90;10.82;;;;;;;;;;5055808;28;20199;-66
2023/03/06 08:54:08;;;;;;;18.45;13.10;;;;;;;;;;5055056;28;20584;-66
2023/03/06 08:56:35;;;;;;;16.38;11.38;;;;;;;;;;5055242;28;20197;-66
2023/03/06 08:59:04;;;;;;;14.55;11.50;;;;;;;;;;5055491;28;20199;-66
2023/03/06 09:01:35;;;;;;;18.17;12.50;;;;;;;;;;5055250;28;20200;-66
2023/03/06 09:04:04;;;;;;;16.40;12.23;;;;;;;;;;5055399;28;20269;-66
2023/03/06 09:06:32;;;;;;;22.23;13.70;;;;;;;;;;5055214;28;20229;-66
2023/03/06 09:08:59;;;;;;;16.67;13.25;;;;;;;;;;5055180;28;20200;-66
2023/03/06 09:11:27;;;;;;;16.23;12.05;;;;;;;;;;5054953;28;20293;-66
2023/03/06 09:13:54;;;;;;;23.17;13.60;;;;;;;;;;5054525;28;20643;-67
2023/03/06 09:16:22;;;;;;;15.32;12.93;;;;;;;;;;5054621;28;20203;-66
2023/03/06 09:18:52;;;;;;;16.50;13.30;;;;;;;;;;5054765;28;20219;-67
2023/03/06 09:21:20;;;;;;;18.90;13.77;;;;;;;;;;5055169;28;20189;-66
2023/03/06 09:23:47;;;;;;;22.90;15.52;;;;;;;;;;5054626;28;20194;-67
2023/03/06 09:26:14;;;;;;;20.35;14.10;;;;;;;;;;5054664;28;20624;-66
2023/03/06 09:28:41;;;;;;;19.48;14.07;;;;;;;;;;5055038;28;20280;-67
2023/03/06 09:31:09;;;;;;;18.48;13.70;;;;;;;;;;5054733;28;20194;-67
2023/03/06 09:33:37;;;;;;;18.77;13.48;;;;;;;;;;5054434;28;20193;-67
2023/03/06 09:36:06;;;;;;;18.40;13.75;;;;;;;;;;5054450;28;20208;-67
2023/03/06 09:38:33;;;;;;;19.40;12.75;;;;;;;;;;5054557;28;20197;-67
2023/03/06 09:41:03;;;;;;;19.20;12.85;;;;;;;;;;5054616;28;20198;-67
2023/03/06 09:43:34;;;;;;;22.63;15.13;;;;;;;;;;5054447;28;20203;-67
2023/03/06 09:46:01;;;;;;;16.35;11.20;;;;;;;;;;5054449;28;20206;-66
2023/03/06 09:48:33;;;;;;;15.75;11.93;;;;;;;;;;5054662;28;20288;-66
2023/03/06 09:51:04;;;;;;;15.90;12.10;;;;;;;;;;5054560;28;20186;-67
2023/03/06 09:53:43;;;;;;;15.98;11.18;;;;;;;;;;5053996;28;20573;-67
2023/03/06 09:56:13;;;;;;;15.00;11.93;;;;;;;;;;5053716;28;20187;-67
2023/03/06 09:58:42;;;;;;;18.25;11.73;;;;;;;;;;5054449;28;20190;-67
2023/03/06 10:01:15;;;;;;;17.77;12.68;;;;;;;;;;5054008;28;20194;-67
2023/03/06 10:03:46;;;;;;;18.25;12.95;;;;;;;;;;5054325;28;20184;-67
2023/03/06 10:06:15;;;;;;;12.95;11.13;;;;;;;;;;5053820;28;20701;-67
2023/03/06 10:08:49;;;;;;;12.43;11.07;;;;;;;;;;5053862;28;20208;-67
2023/03/06 10:11:19;;;;;;;13.90;11.50;;;;;;;;;;5054268;28;20276;-67
2023/03/06 10:13:47;;;;;;;17.50;12.02;;;;;;;;;;5053732;28;20535;-66
2023/03/06 10:16:23;;;;;;;19.30;11.75;;;;;;;;;;5053180;28;20201;-67
2023/03/06 10:18:51;;;;;;;15.45;11.30;;;;;;;;;;5054144;28;20182;-67
2023/03/06 10:21:23;;;;;;;13.55;10.30;;;;;;;;;;5053880;28;20193;-67
2023/03/06 10:23:53;;;;;;;12.05;9.32;;;;;;;;;;5054178;28;20271;-67
2023/03/06 10:26:23;;;;;;;13.40;10.10;;;;;;;;;;5053765;28;20562;-67
2023/03/06 10:28:54;;;;;;;15.00;10.45;;;;;;;;;;5053489;28;20663;-67
2023/03/06 10:31:23;;;;;;;14.57;10.38;;;;;;;;;;5053863;28;20186;-67
2023/03/06 10:33:54;;;;;;;10.32;8.90;;;;;;;;;;5053278;28;20190;-67
2023/03/06 10:36:25;;;;;;;10.07;8.00;;;;;;;;;;5052824;28;20292;-65
2023/03/06 10:38:55;;;;;;;15.00;8.32;;;;;;;;;;5053311;28;20178;-65
2023/03/06 10:41:24;;;;;;;8.85;7.13;;;;;;;;;;5053266;28;20195;-65
2023/03/06 10:44:10;;;;;;;7.55;6.10;;;;;;;;;;5053294;28;20197;-65
2023/03/06 10:46:38;;;;;;;8.27;7.13;;;;;;;;;;5053261;28;20218;-69
2023/03/06 10:49:08;;;;;;;8.65;6.95;;;;;;;;;;5053216;28;20190;-68
2023/03/06 10:51:35;;;;;;;8.57;5.35;;;;;;;;;;5053339;28;20575;-68
2023/03/06 10:54:18;;;;;;;8.02;6.65;;;;;;;;;;5052494;28;20195;-68
2023/03/06 10:56:46;;;;;;;9.25;6.40;;;;;;;;;;5052581;28;20181;-68
2023/03/06 10:59:16;;;;;;;6.03;4.22;;;;;;;;;;5052942;28;20640;-67
2023/03/06 11:01:44;;;;;;;6.20;5.70;;;;;;;;;;5053086;28;20288;-67
2023/03/06 11:04:22;;;;;;;7.88;6.10;;;;;;;;;;5052836;28;20229;-67
2023/03/06 11:07:04;;;;;;;7.47;6.43;;;;;;;;;;5052956;28;20574;-67
2023/03/06 11:09:33;;;;;;;4.30;3.90;;;;;;;;;;5053232;28;20209;-68
2023/03/06 11:12:19;;;;;;;5.55;5.05;;;;;;;;;;5052941;28;20193;-67
2023/03/06 11:14:47;;;;;;;5.15;4.30;;;;;;;;;;5052289;28;20283;-67
2023/03/06 11:17:27;;;;;;;5.20;4.32;;;;;;;;;;5053067;28;20276;-67
2023/03/06 11:20:08;;;;;;;3.83;3.53;;;;;;;;;;5053680;28;20191;-67
2023/03/06 11:22:36;;;;;;;4.68;4.18;;;;;;;;;;5052961;28;20190;-67
2023/03/06 11:25:05;;;;;;;4.70;4.30;;;;;;;;;;5053072;28;20201;-67
2023/03/06 11:27:34;;;;;;;4.18;3.88;;;;;;;;;;5052767;28;20250;-67
2023/03/06 11:30:02;;;;;;;3.35;3.05;;;;;;;;;;5053106;28;20195;-67
2023/03/06 11:32:31;;;;;;;3.92;3.63;;;;;;;;;;5052793;28;20277;-66
2023/03/06 11:34:59;;;;;;;3.17;2.88;;;;;;;;;;5052962;28;20546;-67
2023/03/06 11:37:34;;;;;;;4.15;3.85;;;;;;;;;;5052535;28;20196;-67
2023/03/06 11:40:05;;;;;;;3.20;3.00;;;;;;;;;;5052778;28;20655;-67
2023/03/06 11:42:41;;;;;;;3.00;2.80;;;;;;;;;;5052410;28;20175;-66
2023/03/06 11:45:17;;;;;;;3.40;3.10;;;;;;;;;;5053253;28;20194;-66
2023/03/06 11:47:47;;;;;;;2.85;2.65;;;;;;;;;;5051268;28;20688;-67
2023/03/06 11:50:18;;;;;;;3.22;2.92;;;;;;;;;;5052376;28;20681;-67
2023/03/06 11:52:48;;;;;;;2.35;2.22;;;;;;;;;;5052437;28;20185;-67
2023/03/06 11:55:17;;;;;;;2.70;2.50;;;;;;;;;;5052646;28;20183;-67
2023/03/06 11:57:48;;;;;;;3.30;3.00;;;;;;;;;;5052037;28;20194;-67
2023/03/06 12:00:22;;;;;;;2.40;2.20;;;;;;;;;;5052227;28;20186;-68
2023/03/06 12:03:08;;;;;;;2.85;2.45;;;;;;;;;;5052631;28;20528;-67
2023/03/06 12:05:37;;;;;;;4.80;2.75;;;;;;;;;;5052253;28;20229;-67
2023/03/06 12:08:15;;;;;;;2.90;2.42;;;;;;;;;;5052127;28;20629;-66
2023/03/06 12:10:46;;;;;;;3.40;2.97;;;;;;;;;;5052787;28;20266;-67
2023/03/06 12:13:33;;;;;;;5.45;2.70;;;;;;;;;;5052337;28;20274;-67
2023/03/06 12:16:08;;;;;;;3.30;3.00;;;;;;;;;;5052764;28;20186;-67
2023/03/06 12:18:40;;;;;;;3.00;2.80;;;;;;;;;;5052444;28;20221;-67
2023/03/06 12:21:10;;;;;;;4.95;3.75;;;;;;;;;;5051098;28;20190;-67
2023/03/06 12:23:45;;;;;;;3.85;3.13;;;;;;;;;;5052064;28;20198;-67
2023/03/06 12:26:20;;;;;;;3.53;3.22;;;;;;;;;;5051674;28;20271;-67
2023/03/06 12:28:57;;;;;;;3.30;3.00;;;;;;;;;;5052268;28;20178;-67
2023/03/06 12:31:31;;;;;;;3.78;3.10;;;;;;;;;;5052034;28;20210;-67
2023/03/06 12:34:05;;;;;;;5.75;3.35;;;;;;;;;;5052334;28;20182;-67
2023/03/06 12:36:48;;;;;;;3.75;3.45;;;;;;;;;;5052169;28;20317;-67
2023/03/06 12:39:18;;;;;;;3.83;3.50;;;;;;;;;;5051737;28;20175;-67
2023/03/06 12:41:53;;;;;;;4.18;3.83;;;;;;;;;;5051640;28;20640;-67
2023/03/06 12:44:47;;;;;;;5.03;4.07;;;;;;;;;;5051451;28;20297;-69
2023/03/06 12:47:17;;;;;;;4.15;3.72;;;;;;;;;;5051487;28;20221;-67
2023/03/06 12:49:49;;;;;;;7.45;4.03;;;;;;;;;;5051623;28;20241;-67
2023/03/06 12:52:21;;;;;;;4.43;3.75;;;;;;;;;;5052158;28;20189;-67
2023/03/06 12:54:49;;;;;;;3.97;3.65;;;;;;;;;;5051594;28;20175;-67
2023/03/06 12:57:16;;;;;;;4.88;3.55;;;;;;;;;;5051509;28;20593;-67
2023/03/06 12:59:46;;;;;;;5.85;3.53;;;;;;;;;;5054093;28;20654;-67
2023/03/06 13:02:30;;;;;;;4.50;4.10;;;;;;;;;;5055051;28;20281;-67
2023/03/06 13:05:04;;;;;;;3.08;2.75;;;;;;;;;;5055134;28;20303;-67
2023/03/06 13:07:40;;;;;;;2.95;2.75;;;;;;;;;;5054337;28;20236;-68
2023/03/06 13:10:11;;;;;;;4.03;2.33;;;;;;;;;;5055696;28;20186;-67
2023/03/06 13:12:53;;;;;;;3.17;2.90;;;;;;;;;;5054875;28;20182;-68
2023/03/06 13:15:30;;;;;;;3.15;2.88;;;;;;;;;;5055486;28;20194;-67
2023/03/06 13:17:58;;;;;;;3.10;2.90;;;;;;;;;;5055147;28;20196;-67
2023/03/06 13:20:29;;;;;;;3.15;2.95;;;;;;;;;;5055440;28;20647;-68
2023/03/06 13:22:56;;;;;;;3.85;3.50;;;;;;;;;;5054812;28;20194;-67
2023/03/06 13:25:47;;;;;;;3.47;3.13;;;;;;;;;;5054138;28;20187;-68
2023/03/06 13:28:24;;;;;;;3.60;3.30;;;;;;;;;;5054779;28;20210;-66
2023/03/06 13:30:52;;;;;;;2.88;2.63;;;;;;;;;;5055237;28;20185;-66
2023/03/06 13:33:40;;;;;;;3.78;3.45;;;;;;;;;;5054278;28;20194;-66
2023/03/06 13:36:22;;;;;;;3.75;2.88;;;;;;;;;;5046791;28;20273;-66
2023/03/06 13:39:03;;;;;;;6.40;3.40;;;;;;;;;;5054835;28;20609;-65
2023/03/06 13:41:57;;;;;;;3.38;3.08;;;;;;;;;;5054344;28;20300;-66
2023/03/06 13:44:49;;;;;;;3.60;3.10;;;;;;;;;;5054126;28;20191;-66
2023/03/06 13:47:29;;;;;;;3.00;2.80;;;;;;;;;;5053677;28;20654;-66
2023/03/06 13:50:02;;;;;;;3.20;2.90;;;;;;;;;;5054044;28;20655;-66
2023/03/06 13:52:36;;;;;;;3.30;3.10;;;;;;;;;;5054197;28;20643;-66
2023/03/06 13:55:09;;;;;;;3.58;3.13;;;;;;;;;;5054144;28;20189;-66
2023/03/06 13:57:41;;;;;;;4.00;3.20;;;;;;;;;;5054401;28;20190;-66
2023/03/06 14:00:29;;;;;;;3.28;3.03;;;;;;;;;;5054216;28;20621;-66
2023/03/06 14:03:17;;;;;;;3.45;2.75;;;;;;;;;;5053742;28;20270;-69
2023/03/06 14:05:45;;;;;;;2.92;2.72;;;;;;;;;;5053104;28;20224;-66
2023/03/06 14:08:15;;;;;;;3.50;3.20;;;;;;;;;;5053618;28;20294;-66
2023/03/06 14:10:42;;;;;;;3.42;3.22;;;;;;;;;;5053311;28;20222;-66
2023/03/06 14:13:15;;;;;;;3.97;2.70;;;;;;;;;;5053448;28;20281;-67
2023/03/06 14:15:44;;;;;;;3.17;2.97;;;;;;;;;;5053570;28;20615;-66
2023/03/06 14:18:16;;;;;;;3.45;2.95;;;;;;;;;;5053928;28;20206;-66
2023/03/06 14:20:44;;;;;;;6.55;3.40;;;;;;;;;;5053804;28;20193;-66
2023/03/06 14:23:16;;;;;;;3.20;3.00;;;;;;;;;;5053694;28;20198;-66
2023/03/06 14:25:45;;;;;;;3.28;3.05;;;;;;;;;;5053211;28;20264;-67
2023/03/06 14:28:22;;;;;;;2.90;2.70;;;;;;;;;;5053175;28;20309;-69
2023/03/06 14:30:50;;;;;;;2.60;2.40;;;;;;;;;;5057566;28;20178;-66
2023/03/06 14:33:22;;;;;;;2.67;2.47;;;;;;;;;;5073417;28;20197;-66
2023/03/06 14:35:51;;;;;;;2.80;2.50;;;;;;;;;;5073404;28;20185;-66
2023/03/06 14:38:20;;;;;;;2.40;2.20;;;;;;;;;;5073116;28;20201;-66
2023/03/06 14:40:52;;;;;;;2.58;2.38;;;;;;;;;;5073531;28;20194;-66